Have a Safe July 4th! 

Flight Track Log - Related Links

Times and Time Zones

All times are in EDT time to prevent confusion due to time zone crossing. See the FLG3780 flight status page for this flight to view local times or setup timezone preferences in your user account.

Time Position Orientation Groundspeed Altitude Reporting Facility
EDT Latitude Longitude Course Direction KTS MPH feet Rate Location/Type
Tue 09:17:08 AM 42.7108 -73.8303 304° West 166 191 2,400  Level Boston Center
Tue 09:17:49 AM 42.7394 -73.8761 310° West 225 259 3,700 2,059 Climbing Boston Center
Tue 09:18:50 AM 42.7803 -73.9450 309° West 260 299 5,900 2,600 Climbing Boston Center
Tue 09:19:00 AM 42.8111 -74.1776 281° West  Level FlightAware Approximate
Tue 09:19:49 AM 42.8247 -74.0311 305° West 277 319 8,900  Level Boston Center
Tue 09:20:00 AM 42.8297 -74.3078 281° West  Level FlightAware Approximate
Tue 09:20:49 AM 42.8717 -74.1172 307° West 284 327 11,000  Level Boston Center
Tue 09:21:00 AM 42.8507 -74.4374 283° West  Level FlightAware Approximate
Tue 09:21:49 AM 42.9264 -74.2208 306° West 316 364 12,300  Level Boston Center
Tue 09:22:00 AM 42.8809 -74.5617 304° West  Level FlightAware Approximate
Tue 09:22:49 AM 42.9850 -74.3333 305° West 352 405 14,400  Level Boston Center
Tue 09:23:49 AM 43.0244 -74.4567 294° West 362 417 16,300 1,686 Climbing Boston Center
Tue 09:24:50 AM 43.0364 -74.5961 277° West 367 422 17,800 1,388 Climbing Boston Center
Tue 09:25:50 AM 43.0464 -74.7358 276° West 372 428 19,100 1,261 Climbing Boston Center
Tue 09:26:49 AM 43.0600 -74.8783 277° West 372 428 20,300 1,109 Climbing Boston Center
Tue 09:27:49 AM 43.0714 -75.0239 276° West 377 434 21,300 1,000 Climbing Boston Center
Tue 09:28:49 AM 43.0825 -75.1719 276° West 389 448 22,300 1,000 Climbing Boston Center
Tue 09:29:49 AM 43.0956 -75.3206 277° West 395 455 23,300 843 Climbing Boston Center
Tue 09:30:50 AM 43.1050 -75.4433 276° West 395 455 24,000 347 Climbing Boston Center
Tue 09:31:50 AM 43.1192 -75.6119 277° West 401 461 24,000  Level Boston Center
Tue 09:32:49 AM 43.1308 -75.7803 275° West 426 490 24,000  Level Boston Center
Tue 09:34:33 AM 43.1517 -76.0692 276° West 424 488 24,000  Level Cleveland Center
Tue 09:35:33 AM 43.1581 -76.2397 273° West 430 495 24,000  Level Cleveland Center
Tue 09:36:33 AM 43.1436 -76.4086 263° West 446 513 24,000  Level Cleveland Center
Tue 09:37:33 AM 43.1308 -76.5775 264° West 446 513 24,000  Level Cleveland Center
Tue 09:38:33 AM 43.1156 -76.7406 263° West 446 513 24,000  Level Cleveland Center
Tue 09:39:33 AM 43.1000 -76.9094 263° West 446 513 24,000  Level Cleveland Center
Tue 09:40:33 AM 43.0844 -77.0753 263° West 446 513 24,000  Level Cleveland Center
Tue 09:41:33 AM 43.0706 -77.2381 263° West 446 513 24,000  Level Cleveland Center
Tue 09:42:33 AM 43.0544 -77.4067 263° West 446 513 24,000  Level Cleveland Center
Tue 09:43:33 AM 43.0358 -77.5694 261° West 446 513 24,000  Level Cleveland Center
Tue 09:44:33 AM 43.0214 -77.7378 263° West 446 513 24,000  Level Cleveland Center
Tue 09:45:33 AM 43.0064 -77.9003 263° West 446 513 24,000  Level Cleveland Center
Tue 09:46:33 AM 42.9914 -78.0656 263° West 446 513 24,000  Level Cleveland Center
Tue 09:47:33 AM 42.9739 -78.2281 262° West 446 513 24,000  Level Cleveland Center
Tue 09:48:33 AM 42.9547 -78.4103 262° West 446 513 24,000  Level Cleveland Center
Tue 09:49:33 AM 42.9367 -78.5725 261° West 446 513 24,000  Level Cleveland Center
Tue 09:50:33 AM 42.9164 -78.7378 261° West 446 513 24,000  Level Cleveland Center
Tue 09:51:33 AM 42.8939 -78.9000 259° West 446 513 24,000  Level Cleveland Center
Tue 09:52:33 AM 42.8714 -79.0647 259° West 446 513 24,000  Level Cleveland Center
Tue 09:53:33 AM 42.8442 -79.2297 257° West 446 513 24,000  Level Cleveland Center
Tue 09:54:33 AM 42.8208 -79.3944 259° West 451 519 24,000  Level Cleveland Center
Tue 09:55:33 AM 42.7994 -79.5589 260° West 451 519 24,000  Level Cleveland Center
Tue 09:56:33 AM 42.7739 -79.7206 258° West 451 519 24,000  Level Cleveland Center
Tue 09:57:33 AM 42.7519 -79.8847 260° West 451 519 24,000  Level Cleveland Center
Tue 09:58:33 AM 42.7425 -80.0517 266° West 451 519 24,000  Level Cleveland Center
Tue 09:59:33 AM 42.7347 -80.2186 266° West 446 513 24,000  Level Cleveland Center
Tue 10:00:33 AM 42.7289 -80.3656 267° West 441 507 24,000  Level Cleveland Center
Tue 10:01:33 AM 42.7250 -80.5353 268° West 441 507 24,000  Level Cleveland Center
Tue 10:02:33 AM 42.7164 -80.6933 266° West 436 502 24,000  Level Cleveland Center
Tue 10:03:33 AM 42.7078 -80.8572 266° West 442 509 24,000  Level Cleveland Center
Tue 10:04:33 AM 42.6928 -81.0239 263° West 442 509 24,000  Level Cleveland Center
Tue 10:05:33 AM 42.6753 -81.1875 262° West 442 509 24,000  Level Cleveland Center
Tue 10:06:33 AM 42.6556 -81.3483 261° West 442 509 24,000  Level Cleveland Center
Tue 10:07:33 AM 42.6356 -81.5258 261° West 442 509 24,000 -800 Level Cleveland Center
Tue 10:08:33 AM 42.6133 -81.6919 260° West 442 509 22,400 -1,900 Descending Cleveland Center
Tue 10:09:33 AM 42.5972 -81.8297 261° West 441 507 20,200 -2,200 Descending Cleveland Center
Tue 10:10:33 AM 42.5789 -81.9872 261° West 436 502 18,000 -2,100 Descending Cleveland Center
Tue 10:11:33 AM 42.5603 -82.1392 261° West 423 487 16,000 -1,900 Descending Cleveland Center
Tue 10:12:33 AM 42.5436 -82.2797 261° West 407 468 14,200 -1,700 Descending Cleveland Center
Tue 10:13:33 AM 42.5247 -82.4172 259° West 395 455 12,600 -1,023 Descending Cleveland Center
Tue 10:14:42 AM 42.4994 -82.5658 257° West 279 321 12,000 -600 Descending Cleveland Center
Tue 10:15:33 AM 42.4753 -82.6381 246° West 317 365 11,400 -1,189 Descending Cleveland Center
Tue 10:16:33 AM 42.4422 -82.7300 244° Southwest 289 333 9,800 -1,500 Descending Cleveland Center
Tue 10:17:33 AM 42.4278 -82.8281 259° West 273 314 8,400 -1,400 Descending Cleveland Center
Tue 10:18:33 AM 42.4239 -82.9292 267° West 267 307 7,000 -1,139 Descending Cleveland Center
Tue 10:18:52 AM 42.4231 -82.9628 268° West 244 281 6,900 -100 Descending Cleveland Center
Tue 10:19:33 AM 42.4200 -83.0078 265° West 245 282 6,900 59 Level Cleveland Center
Tue 10:20:33 AM 42.4436 -83.0761 295° West 202 232 7,000 -500 Climbing Cleveland Center
Tue 10:21:33 AM 42.4611 -83.1389 291° West 197 227 5,900 -1,333 Descending Cleveland Center
Tue 10:21:54 AM 42.4478 -83.1664 237° Southwest 173 199 5,200 -1,100 Descending Cleveland Center
Tue 10:22:33 AM 42.4267 -83.1825 209° Southwest 156 180 4,800 -387 Descending Cleveland Center
Tue 10:22:56 AM 42.4075 -83.1986 212° Southwest 163 188 4,800 -468 Level Cleveland Center
Tue 10:23:50 AM 42.3717 -83.2222 206° Southwest 165 190 4,200 -667 Descending Cleveland Center

Login

Don't have an account? Register now (free) for customized features, flight alerts, and more!